Time;durP1;ratioP1;P1;durP2;ratioP2;P2;SDS_P1;SDS_P2;PMS_P1;PMS_P2;Temp;Humidity;BMP_temperature;BMP_pressure;BME280_temperature;BME280_humidity;BME280_pressure;Samples;Min_cycle;Max_cycle;Signal;HPM_P1;HPM_P2
2023/05/22 00:02:21;;;;;;;10.23;5.18;;;;;;;;;;4354517;32;316652;-83
2023/05/22 00:04:48;;;;;;;10.27;5.10;;;;;;;;;;4344081;32;317693;-83
2023/05/22 00:07:14;;;;;;;9.95;4.78;;;;;;;;;;4354960;32;318514;-82
2023/05/22 00:09:41;;;;;;;6.18;4.40;;;;;;;;;;4332448;32;317052;-83
2023/05/22 00:12:08;;;;;;;9.25;3.97;;;;;;;;;;4339213;32;317472;-82
2023/05/22 00:14:35;;;;;;;7.80;4.87;;;;;;;;;;4340090;32;322713;-82
2023/05/22 00:17:02;;;;;;;7.40;4.15;;;;;;;;;;4340097;32;415904;-83
2023/05/22 00:19:30;;;;;;;5.65;5.12;;;;;;;;;;4339610;32;316562;-82
2023/05/22 00:21:56;;;;;;;6.65;4.70;;;;;;;;;;4330543;32;317355;-82
2023/05/22 00:24:23;;;;;;;11.60;4.82;;;;;;;;;;4340262;32;316603;-83
2023/05/22 00:26:50;;;;;;;8.98;4.43;;;;;;;;;;4329321;32;318486;-84
2023/05/22 00:29:17;;;;;;;7.97;4.53;;;;;;;;;;4339976;32;316570;-83
2023/05/22 00:31:43;;;;;;;8.65;4.78;;;;;;;;;;4330282;32;317453;-84
2023/05/22 00:34:10;;;;;;;6.82;4.40;;;;;;;;;;4338721;32;317625;-83
2023/05/22 00:36:38;;;;;;;10.95;4.18;;;;;;;;;;4330106;32;317377;-82
2023/05/22 00:39:05;;;;;;;8.10;4.12;;;;;;;;;;4339316;32;318370;-83
2023/05/22 00:41:32;;;;;;;6.57;4.57;;;;;;;;;;4351072;32;316512;-84
2023/05/22 00:43:59;;;;;;;5.55;4.10;;;;;;;;;;4328747;32;317317;-84
2023/05/22 00:46:26;;;;;;;8.40;4.20;;;;;;;;;;4338804;32;317165;-83
2023/05/22 00:48:52;;;;;;;8.70;4.30;;;;;;;;;;4329932;32;317290;-83
2023/05/22 00:51:21;;;;;;;12.90;4.32;;;;;;;;;;4340092;32;316808;-83
2023/05/22 00:53:50;;;;;;;7.95;4.43;;;;;;;;;;4329723;32;318367;-82
2023/05/22 00:56:17;;;;;;;10.35;7.25;;;;;;;;;;4339062;32;344439;-82
2023/05/22 00:58:44;;;;;;;12.15;6.62;;;;;;;;;;4328781;32;318468;-84
2023/05/22 01:01:11;;;;;;;10.63;4.90;;;;;;;;;;4338573;32;318771;-82
2023/05/22 01:03:43;;;;;;;6.43;4.60;;;;;;;;;;4328529;32;318448;-82
2023/05/22 01:06:10;;;;;;;16.77;5.90;;;;;;;;;;4339800;32;317208;-82
2023/05/22 01:08:37;;;;;;;7.20;4.57;;;;;;;;;;4324341;32;357785;-82
2023/05/22 01:11:12;;;;;;;8.27;4.35;;;;;;;;;;4339491;32;316640;-83
2023/05/22 01:13:46;;;;;;;9.80;4.43;;;;;;;;;;4328779;32;317189;-82
2023/05/22 01:16:23;;;;;;;8.35;4.12;;;;;;;;;;4338925;32;343152;-83
2023/05/22 01:19:02;;;;;;;11.63;4.30;;;;;;;;;;4328610;32;317076;-82
2023/05/22 01:21:37;;;;;;;7.32;4.47;;;;;;;;;;4343441;32;318735;-81
2023/05/22 01:24:55;;;;;;;5.07;3.65;;;;;;;;;;4341712;32;418027;-82
2023/05/22 01:27:41;;;;;;;5.80;4.53;;;;;;;;;;4282706;33;418009;-84
2023/05/22 01:30:20;;;;;;;10.50;4.85;;;;;;;;;;4341490;32;418873;-82
2023/05/22 01:32:50;;;;;;;5.75;4.25;;;;;;;;;;4343106;32;318391;-82
2023/05/22 01:35:18;;;;;;;7.47;4.47;;;;;;;;;;4338903;32;317333;-82
2023/05/22 01:37:46;;;;;;;6.85;4.78;;;;;;;;;;4345358;32;316952;-82
2023/05/22 01:40:13;;;;;;;7.12;3.17;;;;;;;;;;4342697;32;316762;-82
2023/05/22 01:42:41;;;;;;;8.65;4.00;;;;;;;;;;4345503;32;317330;-84
2023/05/22 01:45:11;;;;;;;6.00;3.83;;;;;;;;;;4328962;32;317348;-84
2023/05/22 01:47:37;;;;;;;8.27;4.43;;;;;;;;;;4338860;32;316679;-82
2023/05/22 01:50:06;;;;;;;5.90;4.12;;;;;;;;;;4328540;32;317673;-82
2023/05/22 01:52:39;;;;;;;11.20;4.60;;;;;;;;;;4338640;32;316731;-83
2023/05/22 01:55:12;;;;;;;8.75;4.35;;;;;;;;;;4328610;32;317617;-82
2023/05/22 01:57:46;;;;;;;10.77;3.80;;;;;;;;;;4336830;32;329369;-82
2023/05/22 02:00:15;;;;;;;10.15;4.50;;;;;;;;;;4327494;32;318089;-84
2023/05/22 02:02:45;;;;;;;7.15;4.47;;;;;;;;;;4338713;32;318018;-84
2023/05/22 02:05:17;;;;;;;5.28;4.60;;;;;;;;;;4328227;32;317058;-83
2023/05/22 02:07:45;;;;;;;10.98;4.10;;;;;;;;;;4337880;32;317212;-83
2023/05/22 02:10:13;;;;;;;4.45;3.65;;;;;;;;;;4328174;32;318512;-84
2023/05/22 02:12:40;;;;;;;6.40;4.68;;;;;;;;;;4337145;32;317034;-82
2023/05/22 02:15:08;;;;;;;7.57;4.60;;;;;;;;;;4328410;32;316682;-83
2023/05/22 02:17:39;;;;;;;8.10;4.80;;;;;;;;;;4337335;32;317217;-82
2023/05/22 02:20:13;;;;;;;5.65;4.97;;;;;;;;;;4327225;32;317634;-83
2023/05/22 02:22:42;;;;;;;7.05;5.35;;;;;;;;;;4353039;32;317619;-83
2023/05/22 02:25:13;;;;;;;5.15;4.05;;;;;;;;;;4341994;32;347996;-83
2023/05/22 02:27:40;;;;;;;5.82;4.15;;;;;;;;;;4352836;32;316633;-82
2023/05/22 02:30:08;;;;;;;10.68;5.10;;;;;;;;;;4341946;32;317383;-82
2023/05/22 02:32:34;;;;;;;12.13;4.72;;;;;;;;;;4352379;32;318371;-83
2023/05/22 02:35:01;;;;;;;6.93;4.25;;;;;;;;;;4337281;32;318352;-82
2023/05/22 02:37:28;;;;;;;8.82;4.35;;;;;;;;;;4325149;32;417537;-82
2023/05/22 02:39:56;;;;;;;6.70;4.95;;;;;;;;;;4336887;32;317351;-83
2023/05/22 02:42:23;;;;;;;5.70;4.72;;;;;;;;;;4333007;32;317297;-83
2023/05/22 02:44:50;;;;;;;6.35;4.95;;;;;;;;;;4336475;32;316512;-82
2023/05/22 02:47:16;;;;;;;11.30;4.97;;;;;;;;;;4341692;32;317214;-83
2023/05/22 02:49:44;;;;;;;7.78;5.15;;;;;;;;;;4352278;32;318405;-83
2023/05/22 02:52:11;;;;;;;7.95;4.93;;;;;;;;;;4341548;32;316552;-83
2023/05/22 02:54:37;;;;;;;6.15;4.95;;;;;;;;;;4351964;32;316629;-83
2023/05/22 02:57:05;;;;;;;10.25;5.20;;;;;;;;;;4341246;32;316605;-82
2023/05/22 02:59:34;;;;;;;10.75;4.80;;;;;;;;;;4352105;32;317861;-84
2023/05/22 03:02:01;;;;;;;12.25;4.80;;;;;;;;;;4351275;32;317673;-82
2023/05/22 03:04:28;;;;;;;11.82;5.10;;;;;;;;;;4338203;32;417437;-82
2023/05/22 03:06:55;;;;;;;10.30;5.32;;;;;;;;;;4351187;32;318313;-81
2023/05/22 03:09:22;;;;;;;10.60;5.47;;;;;;;;;;4342672;32;318225;-81
2023/05/22 03:11:48;;;;;;;10.57;5.15;;;;;;;;;;4352423;32;318533;-82
2023/05/22 03:14:16;;;;;;;5.72;4.25;;;;;;;;;;4342519;32;317951;-83
2023/05/22 03:16:43;;;;;;;9.60;6.75;;;;;;;;;;4352694;32;317106;-83
2023/05/22 03:19:10;;;;;;;8.32;5.45;;;;;;;;;;4341033;32;316893;-82
2023/05/22 03:21:37;;;;;;;10.90;4.90;;;;;;;;;;4351941;32;317508;-83
2023/05/22 03:24:05;;;;;;;9.75;5.80;;;;;;;;;;4342274;32;318686;-84
2023/05/22 03:26:31;;;;;;;12.00;5.45;;;;;;;;;;4352450;32;316742;-85
2023/05/22 03:28:58;;;;;;;9.40;5.32;;;;;;;;;;4352162;32;318457;-83
2023/05/22 03:31:28;;;;;;;7.72;5.00;;;;;;;;;;4341529;32;318196;-83
2023/05/22 03:33:55;;;;;;;8.95;5.25;;;;;;;;;;4352182;32;317288;-83
2023/05/22 03:36:21;;;;;;;8.95;5.25;;;;;;;;;;4342803;32;317235;-82
2023/05/22 03:38:48;;;;;;;9.82;4.43;;;;;;;;;;4348040;32;317452;-83
2023/05/22 03:41:15;;;;;;;8.27;4.95;;;;;;;;;;4328137;32;317387;-83
2023/05/22 03:43:42;;;;;;;9.48;5.20;;;;;;;;;;4342930;32;316567;-83
2023/05/22 03:46:09;;;;;;;11.80;5.32;;;;;;;;;;4345524;32;315912;-82
2023/05/22 03:48:38;;;;;;;11.85;5.85;;;;;;;;;;4351829;32;317743;-83
2023/05/22 03:51:05;;;;;;;13.68;7.85;;;;;;;;;;4343900;32;317372;-82
2023/05/22 03:53:32;;;;;;;7.50;6.30;;;;;;;;;;4349868;32;343485;-83
2023/05/22 03:55:58;;;;;;;11.77;5.93;;;;;;;;;;4339262;32;316526;-82
2023/05/22 03:58:25;;;;;;;9.00;5.45;;;;;;;;;;4326544;32;318452;-82
2023/05/22 04:00:52;;;;;;;8.32;5.75;;;;;;;;;;4335695;32;324838;-82
2023/05/22 04:03:19;;;;;;;14.95;5.43;;;;;;;;;;4327311;32;317146;-84
2023/05/22 04:05:48;;;;;;;7.87;5.28;;;;;;;;;;4337659;32;318357;-81
2023/05/22 04:08:14;;;;;;;11.10;5.05;;;;;;;;;;4329823;32;316558;-82
2023/05/22 04:10:41;;;;;;;14.35;5.28;;;;;;;;;;4338313;32;317741;-82
2023/05/22 04:13:08;;;;;;;13.88;6.35;;;;;;;;;;4329173;32;345892;-83
2023/05/22 04:15:35;;;;;;;12.05;6.57;;;;;;;;;;4339616;32;318246;-82
2023/05/22 04:18:01;;;;;;;15.35;6.03;;;;;;;;;;4339640;32;318414;-82
2023/05/22 04:20:28;;;;;;;13.55;6.45;;;;;;;;;;4329643;32;417755;-82
2023/05/22 04:22:56;;;;;;;10.32;5.82;;;;;;;;;;4341780;32;318070;-83
2023/05/22 04:25:23;;;;;;;19.67;13.25;;;;;;;;;;4328720;32;319221;-82
2023/05/22 04:27:49;;;;;;;19.80;12.63;;;;;;;;;;4339420;32;318832;-83
2023/05/22 04:30:17;;;;;;;18.77;11.02;;;;;;;;;;4329638;32;319773;-83
2023/05/22 04:32:44;;;;;;;21.58;11.95;;;;;;;;;;4339242;32;319460;-85
2023/05/22 04:35:11;;;;;;;19.75;10.38;;;;;;;;;;4329450;32;319564;-85
2023/05/22 04:37:39;;;;;;;17.92;8.82;;;;;;;;;;4338178;32;319576;-82
2023/05/22 04:40:10;;;;;;;11.48;7.70;;;;;;;;;;4328210;32;317995;-82
2023/05/22 04:42:37;;;;;;;11.27;6.85;;;;;;;;;;4339114;32;317994;-88
2023/05/22 04:45:05;;;;;;;13.18;8.60;;;;;;;;;;4342048;32;318686;-85
2023/05/22 04:47:32;;;;;;;13.45;7.05;;;;;;;;;;4352763;32;317916;-84
2023/05/22 04:49:58;;;;;;;10.93;7.10;;;;;;;;;;4354291;32;317732;-83
2023/05/22 04:52:25;;;;;;;10.02;7.05;;;;;;;;;;4343674;32;318696;-85
2023/05/22 04:54:53;;;;;;;15.02;5.72;;;;;;;;;;4352993;32;317950;-83
2023/05/22 04:57:24;;;;;;;11.43;5.85;;;;;;;;;;4335946;32;318194;-84
2023/05/22 04:59:52;;;;;;;12.98;5.75;;;;;;;;;;4341851;32;318304;-85
2023/05/22 05:02:19;;;;;;;14.38;6.18;;;;;;;;;;4328680;32;317670;-83
2023/05/22 05:04:47;;;;;;;10.23;6.05;;;;;;;;;;4338831;32;318571;-84
2023/05/22 05:07:16;;;;;;;13.07;5.70;;;;;;;;;;4329327;32;318348;-84
2023/05/22 05:09:43;;;;;;;8.80;5.18;;;;;;;;;;4337284;32;331677;-83
2023/05/22 05:12:09;;;;;;;10.55;5.35;;;;;;;;;;4329274;32;316651;-84
2023/05/22 05:14:37;;;;;;;8.25;4.35;;;;;;;;;;4338704;32;318132;-84
2023/05/22 05:17:05;;;;;;;6.82;4.75;;;;;;;;;;4328699;32;316905;-84
2023/05/22 05:19:33;;;;;;;7.35;4.45;;;;;;;;;;4338448;32;316854;-84
2023/05/22 05:22:00;;;;;;;6.50;4.45;;;;;;;;;;4338493;32;316719;-83
2023/05/22 05:24:26;;;;;;;11.93;5.93;;;;;;;;;;4328945;32;317173;-85
2023/05/22 05:26:53;;;;;;;9.25;4.87;;;;;;;;;;4338507;32;318395;-83
2023/05/22 05:29:20;;;;;;;8.63;4.35;;;;;;;;;;4327688;32;316630;-84
2023/05/22 05:31:48;;;;;;;6.75;5.15;;;;;;;;;;4349757;32;317333;-83
2023/05/22 05:34:15;;;;;;;12.65;5.43;;;;;;;;;;4332154;32;342474;-83
2023/05/22 05:36:41;;;;;;;8.77;5.57;;;;;;;;;;4338495;32;318034;-88
2023/05/22 05:39:08;;;;;;;9.80;4.62;;;;;;;;;;4328263;32;317090;-86
2023/05/22 05:41:35;;;;;;;5.72;4.07;;;;;;;;;;4343015;32;316950;-82
2023/05/22 05:44:02;;;;;;;18.50;4.72;;;;;;;;;;4336833;32;317511;-82
2023/05/22 05:46:28;;;;;;;7.32;4.97;;;;;;;;;;4338926;32;419459;-84
2023/05/22 05:48:58;;;;;;;11.80;4.72;;;;;;;;;;4350367;32;316710;-82
2023/05/22 05:51:25;;;;;;;10.73;5.10;;;;;;;;;;4342012;32;318467;-82
2023/05/22 05:53:51;;;;;;;9.00;5.10;;;;;;;;;;4351545;32;318580;-84
2023/05/22 05:56:18;;;;;;;12.88;4.68;;;;;;;;;;4334475;32;317501;-83
2023/05/22 05:58:45;;;;;;;5.62;4.57;;;;;;;;;;4350881;32;317927;-82
2023/05/22 06:01:11;;;;;;;9.77;6.07;;;;;;;;;;4343351;32;317483;-84
2023/05/22 06:03:38;;;;;;;13.52;4.80;;;;;;;;;;4352746;32;316679;-84
2023/05/22 06:06:07;;;;;;;11.35;5.45;;;;;;;;;;4334291;32;318353;-82
2023/05/22 06:08:34;;;;;;;7.45;5.62;;;;;;;;;;4339468;32;318244;-83
2023/05/22 06:11:00;;;;;;;13.10;5.62;;;;;;;;;;4352920;32;317449;-82
2023/05/22 06:13:27;;;;;;;15.48;5.07;;;;;;;;;;4339796;32;417605;-82
2023/05/22 06:15:54;;;;;;;6.78;4.60;;;;;;;;;;4350543;32;357514;-85
2023/05/22 06:18:22;;;;;;;8.13;4.90;;;;;;;;;;4343024;32;316624;-82
2023/05/22 06:20:49;;;;;;;8.98;4.85;;;;;;;;;;4352500;32;316871;-83
2023/05/22 06:23:17;;;;;;;9.75;5.35;;;;;;;;;;4342670;32;316601;-84
2023/05/22 06:25:44;;;;;;;6.57;3.87;;;;;;;;;;4352574;32;317320;-83
2023/05/22 06:28:11;;;;;;;25.37;4.90;;;;;;;;;;4342532;32;317662;-82
2023/05/22 06:30:37;;;;;;;6.53;5.00;;;;;;;;;;4352817;32;317920;-83
2023/05/22 06:33:04;;;;;;;9.45;4.37;;;;;;;;;;4345409;32;317340;-85
2023/05/22 06:35:31;;;;;;;8.55;4.40;;;;;;;;;;4367459;32;316744;-85
2023/05/22 06:37:58;;;;;;;8.10;4.30;;;;;;;;;;4367511;32;316724;-84
2023/05/22 06:40:26;;;;;;;10.15;5.50;;;;;;;;;;4357467;32;316850;-84
2023/05/22 06:42:53;;;;;;;6.45;4.82;;;;;;;;;;4356794;32;317824;-83
2023/05/22 06:45:19;;;;;;;11.43;4.78;;;;;;;;;;4342846;32;317546;-87
2023/05/22 06:47:46;;;;;;;7.62;4.75;;;;;;;;;;4350940;32;317846;-85
2023/05/22 06:50:13;;;;;;;6.97;5.00;;;;;;;;;;4339694;32;319745;-84
2023/05/22 06:52:40;;;;;;;6.37;3.80;;;;;;;;;;4351799;32;317748;-84
2023/05/22 06:55:08;;;;;;;9.23;4.47;;;;;;;;;;4340059;32;333470;-82
2023/05/22 06:57:36;;;;;;;7.72;4.03;;;;;;;;;;4352001;32;317264;-85
2023/05/22 07:00:06;;;;;;;8.27;3.50;;;;;;;;;;4342298;32;317125;-85
2023/05/22 07:02:33;;;;;;;11.25;5.40;;;;;;;;;;4352066;32;317457;-83
2023/05/22 07:05:00;;;;;;;7.37;4.22;;;;;;;;;;4352244;32;317911;-83
2023/05/22 07:07:27;;;;;;;6.18;4.03;;;;;;;;;;4338254;32;416881;-85
2023/05/22 07:09:54;;;;;;;9.90;4.57;;;;;;;;;;4351350;32;316419;-86
2023/05/22 07:12:24;;;;;;;10.30;4.55;;;;;;;;;;4342996;32;317022;-93
2023/05/22 07:14:53;;;;;;;5.00;3.95;;;;;;;;;;4338020;32;317683;-87
2023/05/22 07:17:20;;;;;;;8.65;4.70;;;;;;;;;;4341871;32;316684;-89
2023/05/22 07:19:48;;;;;;;5.37;4.30;;;;;;;;;;4337657;32;316426;-86
2023/05/22 07:22:15;;;;;;;10.27;4.40;;;;;;;;;;4342443;32;316718;-85
2023/05/22 07:24:42;;;;;;;12.32;4.45;;;;;;;;;;4338137;32;318200;-81
2023/05/22 07:27:10;;;;;;;9.15;3.97;;;;;;;;;;4342211;32;318238;-83
2023/05/22 07:29:37;;;;;;;7.72;3.90;;;;;;;;;;4350997;32;316545;-82
2023/05/22 07:32:05;;;;;;;10.60;4.45;;;;;;;;;;4342517;32;316635;-83
2023/05/22 07:34:33;;;;;;;6.93;4.10;;;;;;;;;;4363899;32;318486;-84
2023/05/22 07:36:59;;;;;;;5.57;3.75;;;;;;;;;;4366544;32;317540;-84
2023/05/22 07:39:26;;;;;;;8.02;3.95;;;;;;;;;;4355691;32;317552;-83
2023/05/22 07:41:53;;;;;;;10.63;4.10;;;;;;;;;;4363516;32;317290;-82
2023/05/22 07:44:20;;;;;;;8.05;4.60;;;;;;;;;;4343627;32;318157;-85
2023/05/22 07:46:47;;;;;;;7.70;4.60;;;;;;;;;;4354971;32;316819;-85
2023/05/22 07:49:18;;;;;;;11.15;4.60;;;;;;;;;;4345642;32;316644;-85
2023/05/22 07:51:45;;;;;;;7.30;4.62;;;;;;;;;;4355615;32;317651;-85
2023/05/22 07:54:13;;;;;;;9.80;4.30;;;;;;;;;;4346242;32;328632;-84
2023/05/22 07:56:41;;;;;;;18.50;4.43;;;;;;;;;;4357526;32;316514;-84
2023/05/22 07:59:09;;;;;;;10.45;4.93;;;;;;;;;;4359214;32;318073;-84
2023/05/22 08:01:37;;;;;;;10.10;4.50;;;;;;;;;;4371995;32;316065;-84
2023/05/22 08:04:04;;;;;;;10.10;4.85;;;;;;;;;;4347623;32;318240;-84
2023/05/22 08:06:33;;;;;;;7.15;4.50;;;;;;;;;;4373291;32;316161;-84
2023/05/22 08:09:01;;;;;;;12.02;3.30;;;;;;;;;;4365036;32;316674;-84
2023/05/22 08:11:27;;;;;;;10.52;4.18;;;;;;;;;;4343202;32;417097;-83
2023/05/22 08:13:55;;;;;;;10.02;4.28;;;;;;;;;;4353793;32;318597;-85
2023/05/22 08:16:21;;;;;;;11.27;4.78;;;;;;;;;;4343808;32;318399;-86
2023/05/22 08:18:48;;;;;;;6.82;4.43;;;;;;;;;;4352228;32;350561;-85
2023/05/22 08:21:15;;;;;;;9.95;3.58;;;;;;;;;;4341649;32;317192;-80
2023/05/22 08:23:43;;;;;;;8.02;3.65;;;;;;;;;;4352954;32;317290;-80
2023/05/22 08:26:10;;;;;;;12.98;4.57;;;;;;;;;;4341758;32;322410;-79
2023/05/22 08:28:40;;;;;;;7.12;4.00;;;;;;;;;;4352587;32;318350;-89
2023/05/22 08:31:07;;;;;;;8.90;4.47;;;;;;;;;;4340686;32;317388;-83
2023/05/22 08:33:34;;;;;;;6.30;3.70;;;;;;;;;;4359390;32;317188;-82
2023/05/22 08:36:00;;;;;;;12.75;4.05;;;;;;;;;;4361487;32;317156;-82
2023/05/22 08:38:27;;;;;;;4.75;3.37;;;;;;;;;;4340918;32;419692;-84
2023/05/22 08:40:55;;;;;;;6.68;3.72;;;;;;;;;;4353980;32;317180;-82
2023/05/22 08:43:22;;;;;;;5.75;4.18;;;;;;;;;;4330230;32;316546;-82
2023/05/22 08:45:56;;;;;;;5.25;3.25;;;;;;;;;;4338842;32;316414;-85
2023/05/22 08:48:24;;;;;;;3.65;3.00;;;;;;;;;;4328819;32;319318;-86
2023/05/22 08:50:57;;;;;;;8.23;3.85;;;;;;;;;;4339295;32;316396;-87
2023/05/22 08:53:27;;;;;;;8.07;2.92;;;;;;;;;;4328354;32;317076;-84
2023/05/22 08:55:55;;;;;;;6.35;3.87;;;;;;;;;;4339297;32;316984;-83
2023/05/22 08:58:23;;;;;;;8.93;4.18;;;;;;;;;;4328309;32;317581;-86
2023/05/22 09:00:50;;;;;;;9.73;3.50;;;;;;;;;;4338731;32;316481;-83
2023/05/22 09:03:17;;;;;;;8.43;3.50;;;;;;;;;;4328422;32;316545;-83
2023/05/22 09:05:44;;;;;;;13.82;3.50;;;;;;;;;;4339179;32;316548;-84
2023/05/22 09:08:11;;;;;;;6.10;4.03;;;;;;;;;;4329292;32;318302;-83
2023/05/22 09:10:37;;;;;;;7.57;3.25;;;;;;;;;;4342664;32;316585;-89
2023/05/22 09:13:08;;;;;;;8.13;3.85;;;;;;;;;;4328825;32;316636;-84
2023/05/22 09:15:36;;;;;;;6.37;3.45;;;;;;;;;;4337194;32;317237;-85
2023/05/22 09:18:05;;;;;;;5.30;3.10;;;;;;;;;;4330786;32;317230;-83
2023/05/22 09:20:36;;;;;;;9.95;3.25;;;;;;;;;;4338886;32;317391;-81
2023/05/22 09:23:11;;;;;;;5.87;4.07;;;;;;;;;;4328644;32;317118;-82
2023/05/22 09:25:37;;;;;;;9.35;3.47;;;;;;;;;;4322817;33;317562;-85
2023/05/22 09:28:06;;;;;;;7.82;4.20;;;;;;;;;;4310469;32;319465;-83
2023/05/22 09:30:34;;;;;;;14.63;3.53;;;;;;;;;;4323807;33;317081;-83
2023/05/22 09:33:01;;;;;;;8.07;3.30;;;;;;;;;;4319732;33;317832;-83
2023/05/22 09:35:31;;;;;;;9.10;5.10;;;;;;;;;;4325775;32;417126;-84
2023/05/22 09:38:00;;;;;;;11.48;3.85;;;;;;;;;;4337637;32;317185;-85
2023/05/22 09:40:28;;;;;;;8.48;3.80;;;;;;;;;;4330488;32;317720;-83
2023/05/22 09:42:56;;;;;;;5.37;3.47;;;;;;;;;;4353120;32;316577;-83
2023/05/22 09:45:25;;;;;;;4.68;3.62;;;;;;;;;;4341960;32;316993;-83
2023/05/22 09:47:52;;;;;;;6.55;3.33;;;;;;;;;;4341972;32;317255;-85
2023/05/22 09:50:18;;;;;;;9.93;3.35;;;;;;;;;;4327790;32;317131;-85
2023/05/22 09:52:46;;;;;;;3.85;3.15;;;;;;;;;;4338196;32;319275;-84
2023/05/22 09:55:14;;;;;;;11.12;3.90;;;;;;;;;;4327363;32;317361;-84
2023/05/22 09:57:43;;;;;;;8.30;3.50;;;;;;;;;;4338125;32;318103;-84
2023/05/22 10:00:13;;;;;;;5.85;4.18;;;;;;;;;;4327918;32;317490;-84
2023/05/22 10:02:44;;;;;;;8.02;3.87;;;;;;;;;;4337226;32;344669;-85
2023/05/22 10:05:14;;;;;;;10.80;3.37;;;;;;;;;;4326939;32;332674;-86
2023/05/22 10:07:46;;;;;;;10.15;4.03;;;;;;;;;;4338346;32;318709;-85
2023/05/22 10:10:17;;;;;;;9.30;3.90;;;;;;;;;;4328724;32;329253;-83
2023/05/22 10:12:48;;;;;;;11.75;3.50;;;;;;;;;;4337837;32;317409;-83
2023/05/22 10:15:17;;;;;;;11.63;3.20;;;;;;;;;;4327401;32;318171;-83
2023/05/22 10:17:45;;;;;;;6.53;3.85;;;;;;;;;;4338547;32;317832;-87
2023/05/22 10:20:13;;;;;;;8.27;3.03;;;;;;;;;;4327380;32;317445;-85
2023/05/22 10:22:41;;;;;;;9.82;3.70;;;;;;;;;;4338295;32;317129;-82
2023/05/22 10:25:09;;;;;;;14.45;3.62;;;;;;;;;;4328146;32;316708;-82
2023/05/22 10:27:36;;;;;;;7.68;3.00;;;;;;;;;;4337575;32;317685;-82
2023/05/22 10:30:16;;;;;;;5.18;3.30;;;;;;;;;;4327574;32;317043;-83
2023/05/22 10:32:50;;;;;;;11.18;3.65;;;;;;;;;;4337991;32;316744;-85
2023/05/22 10:35:21;;;;;;;4.23;3.43;;;;;;;;;;4332799;32;339687;-82
2023/05/22 10:37:51;;;;;;;4.78;3.22;;;;;;;;;;4337883;32;316887;-83
2023/05/22 10:40:27;;;;;;;13.25;3.92;;;;;;;;;;4326340;32;317670;-82
2023/05/22 10:42:58;;;;;;;10.43;3.05;;;;;;;;;;4325202;32;317658;-82
2023/05/22 10:45:29;;;;;;;9.57;3.15;;;;;;;;;;4312180;32;318404;-83
2023/05/22 10:48:04;;;;;;;17.65;3.20;;;;;;;;;;4322725;33;317226;-82
2023/05/22 10:50:30;;;;;;;6.40;3.53;;;;;;;;;;4338672;32;419722;-83
2023/05/22 10:53:18;;;;;;;6.87;3.22;;;;;;;;;;4351572;32;317043;-79
2023/05/22 10:55:48;;;;;;;16.00;4.12;;;;;;;;;;4340086;32;417506;-79
2023/05/22 10:58:16;;;;;;;5.95;3.22;;;;;;;;;;4334793;32;317526;-81
2023/05/22 11:00:42;;;;;;;12.73;4.10;;;;;;;;;;4343397;32;316573;-79
2023/05/22 11:03:11;;;;;;;8.13;3.60;;;;;;;;;;4340658;32;318338;-79
2023/05/22 11:05:38;;;;;;;6.82;4.12;;;;;;;;;;4343965;32;317035;-79
2023/05/22 11:08:37;;;;;;;11.50;3.75;;;;;;;;;;4315110;32;317362;-79
2023/05/22 11:11:12;;;;;;;10.23;3.35;;;;;;;;;;4309544;33;322207;-79
2023/05/22 11:13:40;;;;;;;10.25;3.20;;;;;;;;;;4320917;33;347916;-80
2023/05/22 11:16:08;;;;;;;21.37;4.82;;;;;;;;;;4314296;33;317670;-79
2023/05/22 11:18:37;;;;;;;6.10;3.08;;;;;;;;;;4324607;32;317597;-77
2023/05/22 11:21:04;;;;;;;6.82;3.72;;;;;;;;;;4315250;33;317571;-78
2023/05/22 11:23:35;;;;;;;7.00;3.03;;;;;;;;;;4324772;32;317449;-78
2023/05/22 11:26:23;;;;;;;5.95;2.92;;;;;;;;;;4308865;33;316485;-77
2023/05/22 11:28:52;;;;;;;6.60;3.25;;;;;;;;;;4314716;32;416393;-79
2023/05/22 11:31:19;;;;;;;5.47;2.90;;;;;;;;;;4328237;32;317371;-79
2023/05/22 11:33:48;;;;;;;8.35;3.12;;;;;;;;;;4340527;32;317757;-78
2023/05/22 11:36:16;;;;;;;5.45;2.37;;;;;;;;;;4329469;32;317579;-78
2023/05/22 11:38:43;;;;;;;6.07;2.72;;;;;;;;;;4338689;32;316582;-80
2023/05/22 11:41:10;;;;;;;7.70;2.45;;;;;;;;;;4336120;32;317015;-78
2023/05/22 11:43:37;;;;;;;7.78;2.90;;;;;;;;;;4352975;32;316740;-78
2023/05/22 11:46:07;;;;;;;10.93;3.03;;;;;;;;;;4344891;32;317148;-79
2023/05/22 11:48:35;;;;;;;8.15;3.25;;;;;;;;;;4354784;32;318142;-79
2023/05/22 11:51:03;;;;;;;9.95;3.22;;;;;;;;;;4353957;32;317306;-78
2023/05/22 11:53:31;;;;;;;6.78;3.22;;;;;;;;;;4340926;32;418177;-79
2023/05/22 11:56:03;;;;;;;5.50;3.22;;;;;;;;;;4354859;32;317816;-78
2023/05/22 11:58:30;;;;;;;8.90;3.25;;;;;;;;;;4340519;32;414399;-79
2023/05/22 12:01:01;;;;;;;10.15;3.83;;;;;;;;;;4353448;32;316546;-78
2023/05/22 12:03:30;;;;;;;6.20;2.87;;;;;;;;;;4326016;32;417577;-81
2023/05/22 12:05:57;;;;;;;6.78;3.12;;;;;;;;;;4339966;32;316832;-78
2023/05/22 12:08:26;;;;;;;6.72;3.00;;;;;;;;;;4330355;32;317197;-78
2023/05/22 12:10:54;;;;;;;11.60;3.37;;;;;;;;;;4340448;32;317317;-77
2023/05/22 12:13:25;;;;;;;10.07;3.55;;;;;;;;;;4331096;32;318448;-80
2023/05/22 12:15:55;;;;;;;12.18;3.35;;;;;;;;;;4352569;32;318230;-79
2023/05/22 12:18:22;;;;;;;11.73;4.07;;;;;;;;;;4339199;32;317596;-79
2023/05/22 12:20:53;;;;;;;8.52;3.15;;;;;;;;;;4347206;32;317180;-79
2023/05/22 12:23:24;;;;;;;5.45;3.40;;;;;;;;;;4335774;32;316923;-79
2023/05/22 12:26:02;;;;;;;5.15;3.55;;;;;;;;;;4357878;32;316389;-82
2023/05/22 12:28:31;;;;;;;9.35;3.05;;;;;;;;;;4327416;32;416149;-79
2023/05/22 12:30:57;;;;;;;7.55;3.00;;;;;;;;;;4337019;32;317116;-80
2023/05/22 12:33:28;;;;;;;7.28;3.20;;;;;;;;;;4328699;32;317688;-80
2023/05/22 12:35:57;;;;;;;11.38;3.50;;;;;;;;;;4337751;32;317251;-80
2023/05/22 12:38:25;;;;;;;9.52;3.15;;;;;;;;;;4329168;32;318164;-80
2023/05/22 12:40:53;;;;;;;6.50;2.85;;;;;;;;;;4343045;32;317242;-80
2023/05/22 12:43:21;;;;;;;15.63;3.40;;;;;;;;;;4328453;32;317279;-81
2023/05/22 12:45:48;;;;;;;7.43;3.25;;;;;;;;;;4339133;32;318206;-77
2023/05/22 12:48:15;;;;;;;12.27;3.08;;;;;;;;;;4328497;32;317441;-79
2023/05/22 12:50:41;;;;;;;3.53;2.62;;;;;;;;;;4337195;32;318538;-81
2023/05/22 12:53:08;;;;;;;8.25;3.15;;;;;;;;;;4326053;32;336942;-83
2023/05/22 12:55:35;;;;;;;7.00;2.83;;;;;;;;;;4338897;32;317080;-78
2023/05/22 12:58:03;;;;;;;10.27;3.42;;;;;;;;;;4338410;32;317352;-81
2023/05/22 13:00:31;;;;;;;9.52;3.10;;;;;;;;;;4324104;32;417549;-81
2023/05/22 13:02:58;;;;;;;7.62;3.25;;;;;;;;;;4337826;32;317246;-81
2023/05/22 13:05:24;;;;;;;3.83;2.92;;;;;;;;;;4328509;32;317504;-82
2023/05/22 13:07:52;;;;;;;5.80;3.00;;;;;;;;;;4313977;32;322411;-82
2023/05/22 13:10:19;;;;;;;6.40;3.00;;;;;;;;;;4336941;32;341332;-82
2023/05/22 13:12:49;;;;;;;7.07;3.37;;;;;;;;;;4328574;32;317333;-81
2023/05/22 13:15:16;;;;;;;7.45;4.78;;;;;;;;;;4338966;32;317010;-82
2023/05/22 13:17:44;;;;;;;5.80;3.80;;;;;;;;;;4338894;32;317242;-82
2023/05/22 13:20:12;;;;;;;7.20;3.45;;;;;;;;;;4326919;32;416807;-81
2023/05/22 13:22:39;;;;;;;5.25;3.20;;;;;;;;;;4338612;32;317293;-81
2023/05/22 13:25:06;;;;;;;11.85;3.30;;;;;;;;;;4328047;32;317690;-82
2023/05/22 13:27:33;;;;;;;4.70;2.97;;;;;;;;;;4324202;32;317574;-81
2023/05/22 13:29:59;;;;;;;6.10;2.45;;;;;;;;;;4312635;32;317384;-82
2023/05/22 13:32:26;;;;;;;4.28;3.00;;;;;;;;;;4322986;32;327618;-82
2023/05/22 13:34:54;;;;;;;6.95;3.20;;;;;;;;;;4327649;32;317737;-82
2023/05/22 13:37:21;;;;;;;4.82;2.60;;;;;;;;;;4336530;32;316728;-83
2023/05/22 13:39:48;;;;;;;7.78;2.62;;;;;;;;;;4325739;32;317676;-81
2023/05/22 13:42:15;;;;;;;15.43;3.45;;;;;;;;;;4340080;32;317190;-82
2023/05/22 13:44:41;;;;;;;8.35;2.55;;;;;;;;;;4335337;32;318482;-82
2023/05/22 13:47:08;;;;;;;3.22;2.62;;;;;;;;;;4333224;32;317350;-81
2023/05/22 13:49:35;;;;;;;3.70;2.12;;;;;;;;;;4338090;32;317292;-81
2023/05/22 13:52:03;;;;;;;7.47;2.25;;;;;;;;;;4303410;32;316783;-82
2023/05/22 13:54:30;;;;;;;6.07;2.58;;;;;;;;;;4338287;32;317012;-82
2023/05/22 13:56:58;;;;;;;4.35;2.83;;;;;;;;;;4329177;32;317210;-81
2023/05/22 13:59:26;;;;;;;7.10;2.53;;;;;;;;;;4338221;32;317574;-82
2023/05/22 14:01:52;;;;;;;7.05;2.62;;;;;;;;;;4327715;32;353105;-82
2023/05/22 14:04:19;;;;;;;4.32;2.62;;;;;;;;;;4338486;32;317227;-81
2023/05/22 14:06:46;;;;;;;6.95;3.12;;;;;;;;;;4327686;32;317207;-81
2023/05/22 14:09:14;;;;;;;5.50;2.62;;;;;;;;;;4336355;32;316875;-81
2023/05/22 14:11:41;;;;;;;6.62;2.87;;;;;;;;;;4338523;32;317611;-82
2023/05/22 14:14:08;;;;;;;9.70;2.40;;;;;;;;;;4326831;32;317335;-82
2023/05/22 14:16:35;;;;;;;6.25;2.45;;;;;;;;;;4336099;32;317373;-81
2023/05/22 14:19:01;;;;;;;3.50;2.28;;;;;;;;;;4327330;32;317234;-81
2023/05/22 14:21:28;;;;;;;4.82;2.72;;;;;;;;;;4338276;32;317253;-79
2023/05/22 14:23:55;;;;;;;6.10;2.75;;;;;;;;;;4328576;32;316781;-81
2023/05/22 14:26:23;;;;;;;6.45;2.65;;;;;;;;;;4340359;32;317138;-79
2023/05/22 14:28:50;;;;;;;3.72;2.30;;;;;;;;;;4328396;32;317338;-79
2023/05/22 14:31:17;;;;;;;3.60;1.95;;;;;;;;;;4338084;32;316971;-79
2023/05/22 14:33:44;;;;;;;9.48;2.97;;;;;;;;;;4332088;32;317103;-80